Time;durP1;ratioP1;P1;durP2;ratioP2;P2;SDS_P1;SDS_P2;PMS_P1;PMS_P2;Temp;Humidity;BMP_temperature;BMP_pressure;BME280_temperature;BME280_humidity;BME280_pressure;Samples;Min_cycle;Max_cycle;Signal;HPM_P1;HPM_P2
2022/05/26 00:01:23;;;;;;;4.93;2.47;;;16.80;99.90;;;;;;5000816;28;20838;-85
2022/05/26 00:03:50;;;;;;;5.40;3.00;;;16.70;99.90;;;;;;5002430;28;20927;-85
2022/05/26 00:06:19;;;;;;;6.47;2.87;;;16.70;99.90;;;;;;5001674;28;20455;-85
2022/05/26 00:08:45;;;;;;;10.50;3.40;;;16.70;99.90;;;;;;5002199;28;20443;-84
2022/05/26 00:11:18;;;;;;;4.73;2.63;;;16.70;99.90;;;;;;5002064;28;20412;-85
2022/05/26 00:13:44;;;;;;;4.00;2.57;;;16.70;99.90;;;;;;5000378;28;20863;-86
2022/05/26 00:16:11;;;;;;;3.53;2.47;;;16.50;99.90;;;;;;5000926;28;20515;-85
2022/05/26 00:18:37;;;;;;;5.57;2.50;;;16.50;99.90;;;;;;5001484;28;20538;-84
2022/05/26 00:21:03;;;;;;;4.00;1.97;;;16.60;99.90;;;;;;5000220;28;20475;-84
2022/05/26 00:23:29;;;;;;;3.63;2.00;;;16.60;99.90;;;;;;4998633;28;20424;-85
2022/05/26 00:25:55;;;;;;;5.17;2.20;;;16.50;99.90;;;;;;4999226;28;20787;-85
2022/05/26 00:28:21;;;;;;;5.43;1.97;;;16.50;99.90;;;;;;4999653;28;20209;-85
2022/05/26 00:30:48;;;;;;;3.60;1.53;;;16.50;99.90;;;;;;4999401;28;20192;-85
2022/05/26 00:33:18;;;;;;;5.73;2.33;;;16.50;99.90;;;;;;4998829;28;20270;-86
2022/05/26 00:35:44;;;;;;;2.90;2.20;;;16.50;99.90;;;;;;4998125;28;20424;-85
2022/05/26 00:38:12;;;;;;;5.73;2.13;;;16.40;99.90;;;;;;4998394;28;20536;-85
2022/05/26 00:40:38;;;;;;;3.77;1.70;;;16.40;99.90;;;;;;4998851;28;20189;-84
2022/05/26 00:43:08;;;;;;;3.07;1.80;;;16.50;99.90;;;;;;4998363;28;20439;-85
2022/05/26 00:45:44;;;;;;;4.30;1.40;;;16.40;99.90;;;;;;4998438;28;20435;-84
2022/05/26 00:48:15;;;;;;;2.40;1.07;;;16.40;99.90;;;;;;4997029;28;20541;-84
2022/05/26 00:50:49;;;;;;;2.57;1.20;;;16.50;99.90;;;;;;4996950;28;20574;-85
2022/05/26 00:53:58;;;;;;;3.07;1.43;;;16.40;99.90;;;;;;4997217;28;20931;-85
2022/05/26 00:56:47;;;;;;;2.53;1.20;;;16.40;99.90;;;;;;4944061;28;20528;-85
2022/05/26 00:59:23;;;;;;;3.07;1.40;;;16.30;99.90;;;;;;4996002;28;20420;-85
2022/05/26 01:01:49;;;;;;;3.80;1.20;;;16.20;99.90;;;;;;4996912;28;20423;-85
2022/05/26 01:04:21;;;;;;;2.80;1.33;;;16.30;99.90;;;;;;4996177;28;20474;-85
2022/05/26 01:06:52;;;;;;;2.47;1.03;;;16.30;99.90;;;;;;4996615;28;20292;-84
2022/05/26 01:09:20;;;;;;;2.40;1.10;;;16.30;99.90;;;;;;4995783;28;20877;-84
2022/05/26 01:11:46;;;;;;;2.90;1.30;;;16.40;99.90;;;;;;4995780;28;20482;-84
2022/05/26 01:14:29;;;;;;;4.27;1.70;;;16.20;99.90;;;;;;4995648;28;20409;-84
2022/05/26 01:17:12;;;;;;;2.40;1.30;;;16.20;99.90;;;;;;5021627;22;20498;-80
2022/05/26 01:19:57;;;;;;;3.43;1.53;;;16.20;99.90;;;;;;5034377;28;20513;-80
2022/05/26 01:22:41;;;;;;;4.20;1.73;;;16.20;99.90;;;;;;5052297;28;20407;-80
2022/05/26 01:25:37;;;;;;;2.30;1.10;;;16.20;99.90;;;;;;5051942;28;20417;-80
2022/05/26 01:28:14;;;;;;;3.23;1.20;;;16.20;99.90;;;;;;5014632;28;21045;-80
2022/05/26 01:30:51;;;;;;;2.20;1.20;;;16.20;99.90;;;;;;5014553;28;20415;-80
2022/05/26 01:33:36;;;;;;;2.53;1.10;;;16.20;99.90;;;;;;5014632;28;20573;-80
2022/05/26 01:36:20;;;;;;;3.40;1.30;;;16.10;99.90;;;;;;5014164;28;20474;-80
2022/05/26 01:39:01;;;;;;;6.77;1.57;;;16.10;99.90;;;;;;5042760;28;20434;-82
2022/05/26 01:41:38;;;;;;;2.87;1.47;;;16.10;99.90;;;;;;5034994;28;20399;-82
2022/05/26 01:44:21;;;;;;;2.50;1.40;;;16.00;99.90;;;;;;5017659;28;20770;-82
2022/05/26 01:46:50;;;;;;;2.53;1.50;;;16.10;99.90;;;;;;5015452;28;20434;-80
2022/05/26 01:49:25;;;;;;;2.90;1.70;;;16.10;99.90;;;;;;5014747;28;21004;-80
2022/05/26 01:51:56;;;;;;;3.37;1.73;;;16.00;99.90;;;;;;5014091;28;20537;-80
2022/05/26 01:54:43;;;;;;;4.07;1.93;;;16.00;99.90;;;;;;5014677;28;20949;-80
2022/05/26 01:57:26;;;;;;;2.87;1.50;;;16.00;99.90;;;;;;5033118;28;20825;-82
2022/05/26 01:59:56;;;;;;;3.60;1.77;;;16.10;99.90;;;;;;5016146;28;20449;-81
2022/05/26 02:02:29;;;;;;;5.43;1.87;;;16.10;99.90;;;;;;5015665;28;20415;-81
2022/05/26 02:05:12;;;;;;;4.83;1.20;;;16.10;99.90;;;;;;5033397;28;20453;-81
2022/05/26 02:07:51;;;;;;;3.00;1.30;;;16.20;99.90;;;;;;5032926;28;20426;-82
2022/05/26 02:10:25;;;;;;;2.40;1.23;;;16.30;99.90;;;;;;5032145;28;20759;-82
2022/05/26 02:13:02;;;;;;;2.87;1.20;;;16.30;99.90;;;;;;5015639;28;20550;-81
2022/05/26 02:15:40;;;;;;;2.90;1.40;;;16.30;99.90;;;;;;5015474;28;20403;-82
2022/05/26 02:18:31;;;;;;;4.30;1.23;;;16.40;99.90;;;;;;5015265;28;20451;-81
2022/05/26 02:21:00;;;;;;;4.37;1.47;;;16.40;99.90;;;;;;5034117;28;20442;-82
2022/05/26 02:23:36;;;;;;;2.40;1.40;;;16.30;99.90;;;;;;5037449;28;21254;-80
2022/05/26 02:26:03;;;;;;;3.37;1.40;;;16.30;99.90;;;;;;5019472;28;20419;-82
2022/05/26 02:29:51;;;;;;;2.73;1.17;;;16.20;99.90;;;;;;5023613;28;20535;-81
2022/05/26 02:31:22;;;;;;;2.70;1.23;;;16.10;99.90;;;;;;5041829;28;20454;-81
2022/05/26 02:33:47;;;;;;;2.27;1.20;;;16.00;99.90;;;;;;5024544;28;20445;-81
2022/05/26 02:36:14;;;;;;;2.20;1.00;;;16.00;99.90;;;;;;5023505;28;20462;-81
2022/05/26 02:38:39;;;;;;;2.43;1.30;;;15.90;99.90;;;;;;5041722;28;20196;-81
2022/05/26 02:41:05;;;;;;;2.73;1.27;;;16.00;99.90;;;;;;5041194;28;20483;-82
2022/05/26 02:43:33;;;;;;;2.60;1.40;;;16.00;99.90;;;;;;5041047;28;20177;-80
2022/05/26 02:46:23;;;;;;;2.50;1.30;;;16.10;99.90;;;;;;5040240;28;20227;-81
2022/05/26 02:49:03;;;;;;;2.47;1.17;;;16.10;99.90;;;;;;5036606;28;20960;-82
2022/05/26 02:51:57;;;;;;;2.20;1.20;;;16.10;99.90;;;;;;5060440;28;20398;-81
2022/05/26 02:55:01;;;;;;;2.40;1.30;;;16.10;99.90;;;;;;5029918;28;20966;-81
2022/05/26 02:57:35;;;;;;;2.50;1.20;;;16.10;99.90;;;;;;5030910;28;20438;-81
2022/05/26 03:00:06;;;;;;;2.70;1.40;;;16.10;99.90;;;;;;5059894;28;20460;-79
2022/05/26 03:02:50;;;;;;;4.43;1.67;;;16.10;99.90;;;;;;5041491;28;20414;-81
2022/05/26 03:05:31;;;;;;;3.10;1.73;;;16.20;99.90;;;;;;5041155;28;20410;-82
2022/05/26 03:08:01;;;;;;;3.80;2.17;;;16.10;99.90;;;;;;5040433;28;21155;-79
2022/05/26 03:10:31;;;;;;;2.80;1.80;;;16.10;99.90;;;;;;5041408;28;20463;-81
2022/05/26 03:13:01;;;;;;;4.40;1.73;;;16.10;99.90;;;;;;5041141;28;20810;-78
2022/05/26 03:15:28;;;;;;;2.93;1.80;;;16.00;99.90;;;;;;5040896;28;20410;-81
2022/05/26 03:17:54;;;;;;;4.33;1.93;;;16.00;99.90;;;;;;5058866;28;20457;-80
2022/05/26 03:20:20;;;;;;;3.87;2.07;;;16.00;99.90;;;;;;5059466;28;20415;-81
2022/05/26 03:22:45;;;;;;;5.60;2.20;;;16.10;99.90;;;;;;5040377;28;20171;-82
2022/05/26 03:25:11;;;;;;;3.30;1.97;;;16.10;99.90;;;;;;5058817;28;20259;-80
2022/05/26 03:27:37;;;;;;;4.93;1.80;;;16.10;99.90;;;;;;5040561;28;20195;-80
2022/05/26 03:30:03;;;;;;;2.93;1.80;;;16.10;99.90;;;;;;5058404;28;20909;-81
2022/05/26 03:32:29;;;;;;;2.80;1.87;;;16.10;99.90;;;;;;5041564;28;20207;-81
2022/05/26 03:43:09;;;;;;;4.03;2.00;;;16.10;99.90;;;;;;5063512;28;20904;-81
2022/05/26 03:45:35;;;;;;;4.00;2.10;;;16.10;99.90;;;;;;5044907;28;20444;-81
2022/05/26 03:48:03;;;;;;;3.43;2.00;;;16.10;99.90;;;;;;5045088;28;20449;-82
2022/05/26 03:50:29;;;;;;;2.90;1.70;;;16.00;99.90;;;;;;5062412;28;20422;-82
2022/05/26 03:52:55;;;;;;;2.70;1.90;;;16.10;99.90;;;;;;5061957;28;20502;-81
2022/05/26 03:55:23;;;;;;;5.37;2.10;;;16.10;99.90;;;;;;5044170;28;20422;-80
2022/05/26 03:57:49;;;;;;;3.83;1.73;;;16.10;99.90;;;;;;5061667;28;20242;-81
2022/05/26 04:00:18;;;;;;;4.67;2.33;;;16.10;99.90;;;;;;5044191;28;20410;-81
2022/05/26 04:02:43;;;;;;;3.50;2.00;;;16.10;99.90;;;;;;5062183;28;20856;-82
2022/05/26 04:05:11;;;;;;;3.30;2.10;;;16.10;99.90;;;;;;5061230;28;20410;-81
2022/05/26 04:07:37;;;;;;;3.80;2.03;;;16.10;99.90;;;;;;5060032;28;20580;-81
2022/05/26 04:10:06;;;;;;;3.70;2.10;;;16.10;99.90;;;;;;5060176;28;20410;-81
2022/05/26 04:12:32;;;;;;;4.90;2.40;;;16.10;99.90;;;;;;5042229;28;20831;-81
2022/05/26 04:14:58;;;;;;;2.83;1.70;;;16.10;99.90;;;;;;5060934;28;20506;-81
2022/05/26 04:17:24;;;;;;;5.70;2.43;;;16.10;99.90;;;;;;5060665;28;20474;-81
2022/05/26 04:19:49;;;;;;;3.07;2.17;;;16.10;99.90;;;;;;5041310;28;20423;-81
2022/05/26 04:22:15;;;;;;;3.27;2.17;;;16.10;99.90;;;;;;5041236;28;20172;-81
2022/05/26 04:24:41;;;;;;;4.73;2.50;;;16.10;99.90;;;;;;5059732;28;20250;-81
2022/05/26 04:27:08;;;;;;;4.30;2.70;;;16.00;99.90;;;;;;5059407;28;20204;-81
2022/05/26 04:29:35;;;;;;;4.10;2.80;;;16.00;99.90;;;;;;5060295;28;20471;-80
2022/05/26 04:32:01;;;;;;;3.10;2.10;;;16.00;99.90;;;;;;5059514;28;20452;-82
2022/05/26 04:34:27;;;;;;;4.23;2.80;;;16.00;99.90;;;;;;5041738;28;20788;-81
2022/05/26 04:36:53;;;;;;;4.50;2.43;;;16.00;99.90;;;;;;5058924;28;20810;-81
2022/05/26 04:39:19;;;;;;;4.30;2.73;;;16.00;99.90;;;;;;5059095;28;20482;-81
2022/05/26 04:41:45;;;;;;;3.73;2.33;;;16.00;99.90;;;;;;5059526;28;20172;-80
2022/05/26 04:44:16;;;;;;;3.80;2.20;;;16.00;99.90;;;;;;5057320;28;20425;-80
2022/05/26 04:46:42;;;;;;;5.20;2.57;;;16.10;99.90;;;;;;5058412;28;20437;-80
2022/05/26 04:49:09;;;;;;;3.60;2.40;;;16.10;99.90;;;;;;5058666;28;20407;-82
2022/05/26 04:51:36;;;;;;;4.73;2.70;;;16.10;99.90;;;;;;5040117;28;20179;-80
2022/05/26 04:54:03;;;;;;;6.40;2.63;;;16.10;99.90;;;;;;5060330;28;20414;-81
2022/05/26 04:56:28;;;;;;;6.47;2.50;;;16.10;99.90;;;;;;5058232;28;20418;-81
2022/05/26 04:58:54;;;;;;;7.57;2.77;;;16.10;99.90;;;;;;5041919;28;20794;-82
2022/05/26 05:01:20;;;;;;;3.97;2.33;;;16.20;99.90;;;;;;5059049;28;20207;-80
2022/05/26 05:03:47;;;;;;;5.23;2.73;;;16.20;99.90;;;;;;5039393;28;20598;-80
2022/05/26 05:06:14;;;;;;;4.63;2.60;;;16.30;99.90;;;;;;5038654;28;20502;-81
2022/05/26 05:08:41;;;;;;;4.97;2.70;;;16.30;99.90;;;;;;5057155;28;20780;-81
2022/05/26 05:11:07;;;;;;;4.77;3.10;;;16.30;99.90;;;;;;5038481;28;20419;-80
2022/05/26 05:13:32;;;;;;;5.60;3.00;;;16.30;99.90;;;;;;5057234;28;20996;-82
2022/05/26 05:16:04;;;;;;;4.47;2.77;;;16.30;99.90;;;;;;5038006;28;20465;-80
2022/05/26 05:18:29;;;;;;;5.33;2.67;;;16.40;99.90;;;;;;5056491;28;20238;-80
2022/05/26 05:20:59;;;;;;;4.40;2.70;;;16.40;99.90;;;;;;5056121;28;20939;-81
2022/05/26 05:23:26;;;;;;;4.53;3.13;;;16.50;99.90;;;;;;5057425;28;20883;-80
2022/05/26 05:25:55;;;;;;;6.17;3.10;;;16.50;99.90;;;;;;5056236;28;20445;-81
2022/05/26 05:28:29;;;;;;;5.17;2.97;;;16.60;99.90;;;;;;5038105;28;20949;-81
2022/05/26 05:31:09;;;;;;;6.40;3.07;;;16.60;99.90;;;;;;5056122;28;20994;-81
2022/05/26 05:33:44;;;;;;;6.50;3.10;;;16.60;99.90;;;;;;5054767;28;20519;-80
2022/05/26 05:36:14;;;;;;;4.77;2.80;;;16.50;99.90;;;;;;5052300;28;20512;-80
2022/05/26 05:38:40;;;;;;;5.10;3.27;;;16.50;99.90;;;;;;5052366;28;20430;-80
2022/05/26 05:41:07;;;;;;;4.70;2.70;;;16.60;99.90;;;;;;5052577;28;20504;-79
2022/05/26 05:43:35;;;;;;;7.10;3.30;;;16.60;99.90;;;;;;5034634;28;20418;-80
2022/05/26 05:46:01;;;;;;;6.13;3.73;;;16.60;99.90;;;;;;5034070;28;20833;-80
2022/05/26 05:48:27;;;;;;;7.20;3.60;;;16.60;99.90;;;;;;5052395;28;20437;-79
2022/05/26 05:50:53;;;;;;;4.17;2.90;;;16.60;99.90;;;;;;5051907;28;20429;-79
2022/05/26 05:53:19;;;;;;;6.47;3.50;;;16.70;99.90;;;;;;5034221;28;20454;-79
2022/05/26 05:55:44;;;;;;;6.40;3.43;;;16.70;99.90;;;;;;5033545;28;20179;-80
2022/05/26 05:58:11;;;;;;;4.83;3.10;;;16.60;99.90;;;;;;5034463;28;20253;-79
2022/05/26 06:00:38;;;;;;;6.60;3.50;;;16.60;99.90;;;;;;5052008;28;20225;-79
2022/05/26 06:03:04;;;;;;;7.83;4.33;;;16.70;99.90;;;;;;5052258;28;20469;-80
2022/05/26 06:05:30;;;;;;;5.80;3.00;;;16.70;99.90;;;;;;5033743;28;20430;-79
2022/05/26 06:07:56;;;;;;;4.77;3.03;;;16.70;99.90;;;;;;5051877;28;20529;-79
2022/05/26 06:10:22;;;;;;;5.73;3.07;;;16.80;99.90;;;;;;5051929;28;20183;-79
2022/05/26 06:12:47;;;;;;;8.10;3.40;;;16.80;99.90;;;;;;5051611;28;20204;-80
2022/05/26 06:15:13;;;;;;;8.27;3.90;;;16.90;99.90;;;;;;5051949;28;20497;-80
2022/05/26 06:17:39;;;;;;;5.27;3.00;;;16.90;99.90;;;;;;5051576;28;20211;-79
2022/05/26 06:20:06;;;;;;;7.93;4.07;;;16.90;99.90;;;;;;5051991;28;20237;-79
2022/05/26 06:22:35;;;;;;;5.53;3.50;;;17.10;99.90;;;;;;5033863;28;20505;-79
2022/05/26 06:25:01;;;;;;;5.27;3.20;;;17.30;99.90;;;;;;5051802;28;20497;-79
2022/05/26 06:30:14;;;;;;;5.77;3.50;;;17.40;99.90;;;;;;5052330;28;20420;-79
2022/05/26 06:38:18;;;;;;;5.70;3.70;;;17.70;99.90;;;;;;5051864;28;20951;-80
2022/05/26 06:40:44;;;;;;;6.33;2.80;;;17.70;99.90;;;;;;5051797;28;20410;-79
2022/05/26 06:43:09;;;;;;;7.30;3.93;;;17.70;99.90;;;;;;5051548;28;20519;-80
2022/05/26 06:45:36;;;;;;;7.00;4.40;;;17.70;99.90;;;;;;5051085;28;20215;-80
2022/05/26 06:48:02;;;;;;;4.30;3.40;;;17.80;99.90;;;;;;5051513;28;20588;-80
2022/05/26 06:50:28;;;;;;;4.47;3.40;;;17.70;99.90;;;;;;5051479;28;20445;-79
2022/05/26 06:52:54;;;;;;;6.47;3.50;;;17.70;99.90;;;;;;5051447;28;20478;-79
2022/05/26 06:55:20;;;;;;;5.37;3.60;;;17.70;99.90;;;;;;5051304;28;20175;-80
2022/05/26 06:57:46;;;;;;;5.17;3.63;;;17.60;99.90;;;;;;5033322;28;20484;-79
2022/05/26 07:00:15;;;;;;;8.53;4.30;;;17.60;99.90;;;;;;5051324;28;20897;-79
2022/05/26 07:02:41;;;;;;;5.30;3.33;;;17.70;99.90;;;;;;5051351;28;20172;-79
2022/05/26 07:05:07;;;;;;;11.00;3.70;;;17.70;99.90;;;;;;5051126;28;20459;-79
2022/05/26 07:07:35;;;;;;;7.70;3.73;;;17.80;99.90;;;;;;5051719;28;20512;-80
2022/05/26 07:10:02;;;;;;;6.07;3.03;;;17.90;99.90;;;;;;5037102;28;20952;-80
2022/05/26 07:12:27;;;;;;;6.87;3.57;;;18.10;99.90;;;;;;5054741;28;20445;-80
2022/05/26 07:14:54;;;;;;;6.03;3.30;;;18.20;99.90;;;;;;5055659;28;20426;-80
2022/05/26 07:17:19;;;;;;;5.00;3.33;;;18.20;99.90;;;;;;5055844;28;20257;-80
2022/05/26 07:19:46;;;;;;;4.73;3.00;;;18.40;99.90;;;;;;5158745;22;21195;-84
2022/05/26 07:22:13;;;;;;;5.30;3.13;;;18.60;99.90;;;;;;5026507;28;20476;-80
2022/05/26 07:24:41;;;;;;;6.70;3.60;;;18.60;99.90;;;;;;5037939;28;20414;-81
2022/05/26 07:27:08;;;;;;;4.53;3.13;;;18.70;99.90;;;;;;5029953;28;20577;-82
2022/05/26 07:29:34;;;;;;;6.17;4.43;;;18.70;99.90;;;;;;5037348;28;20591;-81
2022/05/26 07:32:01;;;;;;;5.83;3.40;;;18.80;99.90;;;;;;5037328;28;20574;-81
2022/05/26 07:34:27;;;;;;;6.03;4.53;;;18.90;99.90;;;;;;5038098;28;20932;-82
2022/05/26 07:42:25;;;;;;;7.40;3.27;;;18.70;99.90;;;;;;5055498;28;20425;-86
2022/05/26 07:44:54;;;;;;;6.20;4.13;;;18.70;99.90;;;;;;5037070;28;20513;-83
2022/05/26 07:47:20;;;;;;;7.83;4.10;;;18.70;99.90;;;;;;5036654;28;20824;-84
2022/05/26 07:49:47;;;;;;;4.57;3.50;;;18.90;99.90;;;;;;5036543;28;20418;-85
2022/05/26 07:52:14;;;;;;;4.80;3.67;;;19.20;99.90;;;;;;5037292;28;20544;-85
2022/05/26 07:54:41;;;;;;;4.50;2.90;;;19.30;99.90;;;;;;5036471;28;20914;-83
2022/05/26 07:57:10;;;;;;;7.20;3.77;;;19.40;99.90;;;;;;5036055;28;20492;-82
2022/05/26 07:59:36;;;;;;;5.30;3.00;;;19.50;99.90;;;;;;5036201;28;20480;-82
2022/05/26 08:02:02;;;;;;;5.80;2.97;;;19.40;99.90;;;;;;5036198;28;20426;-82
2022/05/26 08:04:28;;;;;;;6.70;3.30;;;19.60;99.90;;;;;;5035964;28;20852;-82
2022/05/26 08:06:54;;;;;;;6.17;3.40;;;20.30;99.90;;;;;;5035974;28;20488;-81
2022/05/26 08:09:21;;;;;;;5.90;4.07;;;21.10;99.90;;;;;;5036224;28;20207;-81
2022/05/26 08:11:47;;;;;;;5.10;2.90;;;21.10;99.90;;;;;;5035681;28;20537;-82
2022/05/26 08:14:13;;;;;;;4.57;3.50;;;21.90;99.90;;;;;;5036157;28;20502;-81
2022/05/26 08:16:39;;;;;;;5.73;3.20;;;22.70;99.90;;;;;;5035533;28;20234;-82
2022/05/26 08:19:06;;;;;;;7.93;3.40;;;23.10;99.90;;;;;;5036420;28;20415;-83
2022/05/26 08:21:33;;;;;;;4.83;2.93;;;23.10;99.90;;;;;;5036545;28;20495;-82
2022/05/26 08:24:00;;;;;;;6.00;3.30;;;23.50;99.90;;;;;;5035624;28;20425;-82
2022/05/26 08:26:28;;;;;;;4.57;2.80;;;22.70;99.90;;;;;;5035290;28;20418;-83
2022/05/26 08:28:54;;;;;;;6.33;3.47;;;21.50;99.90;;;;;;5035387;28;20410;-82
2022/05/26 08:31:20;;;;;;;3.77;2.83;;;21.20;99.90;;;;;;5035284;28;20767;-81
2022/05/26 08:33:46;;;;;;;5.10;2.70;;;22.40;99.90;;;;;;5035152;28;20477;-81
2022/05/26 08:36:15;;;;;;;5.43;3.07;;;23.50;99.90;;;;;;5035157;28;20172;-81
2022/05/26 08:38:41;;;;;;;3.43;2.70;;;24.50;99.90;;;;;;5035104;28;20192;-83
2022/05/26 08:41:11;;;;;;;3.50;2.60;;;25.30;99.90;;;;;;5035337;28;20501;-81
2022/05/26 08:43:44;;;;;;;6.07;2.53;;;24.70;99.90;;;;;;5034916;28;20425;-83
2022/05/26 08:46:15;;;;;;;5.00;2.60;;;25.60;99.90;;;;;;5034971;28;20793;-85
2022/05/26 08:49:02;;;;;;;4.60;3.00;;;26.10;99.90;;;;;;5035025;28;20441;-83
2022/05/26 08:51:45;;;;;;;4.33;2.70;;;26.40;99.90;;;;;;5035186;28;20433;-81
2022/05/26 08:54:35;;;;;;;3.63;2.67;;;27.60;99.90;;;;;;5034860;28;20418;-80
2022/05/26 08:57:00;;;;;;;4.47;2.80;;;27.10;97.40;;;;;;5034212;28;20431;-79
2022/05/26 08:59:36;;;;;;;9.87;4.23;;;26.80;95.50;;;;;;5034814;28;20472;-83
2022/05/26 09:02:03;;;;;;;4.37;2.70;;;26.90;96.70;;;;;;5035048;28;20232;-83
2022/05/26 09:04:30;;;;;;;4.30;2.80;;;25.90;97.80;;;;;;5034659;28;20422;-82
2022/05/26 09:13:08;;;;;;;6.10;3.40;;;22.80;99.90;;;;;;5055900;28;20545;-84
2022/05/26 09:15:29;;;;;;;4.43;3.10;;;22.40;99.90;;;;;;5049068;28;20419;-86
2022/05/26 09:17:55;;;;;;;4.17;3.00;;;21.90;99.90;;;;;;5038416;28;20470;-85
2022/05/26 09:20:41;;;;;;;8.77;3.53;;;21.50;99.90;;;;;;5033755;28;20455;-85
2022/05/26 09:23:14;;;;;;;3.43;2.40;;;21.80;99.90;;;;;;5017599;28;20442;-85
2022/05/26 09:25:48;;;;;;;5.33;2.60;;;22.00;99.90;;;;;;5016574;28;20557;-85
2022/05/26 09:28:27;;;;;;;3.33;2.20;;;22.10;99.90;;;;;;5017891;28;20431;-84
2022/05/26 09:30:53;;;;;;;5.00;2.70;;;22.00;99.90;;;;;;5018023;28;20937;-85
2022/05/26 09:33:27;;;;;;;5.43;2.37;;;21.80;99.90;;;;;;5019885;28;20494;-84
2022/05/26 09:35:53;;;;;;;3.70;2.63;;;22.40;99.90;;;;;;5018767;28;20490;-82
2022/05/26 09:38:19;;;;;;;4.50;3.20;;;24.40;99.90;;;;;;5016861;28;20469;-82
2022/05/26 09:40:46;;;;;;;3.90;2.53;;;26.30;99.90;;;;;;5016052;28;20181;-85
2022/05/26 09:43:25;;;;;;;3.87;2.50;;;26.80;99.90;;;;;;5015208;28;20435;-85
2022/05/26 09:46:02;;;;;;;4.00;2.33;;;26.60;99.90;;;;;;5014555;28;20514;-85
2022/05/26 09:48:31;;;;;;;5.07;2.83;;;28.60;92.10;;;;;;5015535;28;20514;-86
2022/05/26 09:51:12;;;;;;;5.10;2.30;;;28.80;93.00;;;;;;5018901;28;20477;-86
2022/05/26 09:53:45;;;;;;;4.67;2.70;;;29.30;90.80;;;;;;5035104;28;20482;-82
2022/05/26 09:56:25;;;;;;;5.20;2.40;;;29.30;85.70;;;;;;5035682;28;20449;-83
2022/05/26 09:58:51;;;;;;;5.20;2.30;;;29.80;85.20;;;;;;5036447;28;20421;-83
2022/05/26 10:01:23;;;;;;;6.00;2.77;;;30.40;83.00;;;;;;5019025;28;20473;-83
2022/05/26 10:04:00;;;;;;;6.73;2.80;;;29.30;79.90;;;;;;5034333;28;20964;-82
2022/05/26 10:06:36;;;;;;;3.90;2.23;;;27.30;83.10;;;;;;5037312;28;20509;-83
2022/05/26 10:09:08;;;;;;;4.37;2.10;;;25.90;90.40;;;;;;5034061;28;20424;-83
2022/05/26 10:11:37;;;;;;;3.73;2.20;;;25.80;90.30;;;;;;5033703;28;20426;-83
2022/05/26 10:14:08;;;;;;;6.40;2.50;;;26.20;91.90;;;;;;5034005;28;20429;-83
2022/05/26 10:16:47;;;;;;;5.30;2.53;;;27.50;90.60;;;;;;5033570;28;20422;-83
2022/05/26 10:19:40;;;;;;;5.43;2.33;;;28.50;85.60;;;;;;5034329;28;20433;-82
2022/05/26 10:22:37;;;;;;;5.77;2.43;;;27.50;80.80;;;;;;5034074;28;20429;-83
2022/05/26 10:25:30;;;;;;;4.10;2.23;;;26.20;88.70;;;;;;5034270;28;20552;-83
2022/05/26 10:27:59;;;;;;;4.20;2.47;;;25.80;91.50;;;;;;5033813;28;21003;-83
2022/05/26 10:30:28;;;;;;;5.03;2.10;;;25.40;89.90;;;;;;5033791;28;20430;-83
2022/05/26 10:33:14;;;;;;;4.30;2.63;;;25.40;91.20;;;;;;5033754;28;20587;-83
2022/05/26 10:36:21;;;;;;;3.70;2.00;;;24.80;93.80;;;;;;5033871;28;20426;-82
2022/05/26 10:38:59;;;;;;;4.03;2.07;;;24.30;93.70;;;;;;5033514;28;20579;-82
2022/05/26 10:41:40;;;;;;;3.70;1.90;;;23.70;93.80;;;;;;5034600;28;20484;-82
2022/05/26 10:44:19;;;;;;;3.63;2.07;;;23.20;96.50;;;;;;5037666;28;20433;-82
2022/05/26 10:47:21;;;;;;;5.77;2.43;;;22.80;98.50;;;;;;5037738;28;20535;-82
2022/05/26 10:50:21;;;;;;;4.23;2.00;;;23.00;99.90;;;;;;4951691;28;20957;-83
2022/05/26 10:52:56;;;;;;;5.20;2.10;;;23.20;99.90;;;;;;5016368;28;20469;-83
2022/05/26 10:55:58;;;;;;;3.70;1.90;;;22.90;99.90;;;;;;5037825;28;20409;-81
2022/05/26 10:58:34;;;;;;;7.00;2.43;;;22.80;99.90;;;;;;5037333;28;20445;-82
2022/05/26 11:01:11;;;;;;;3.43;1.87;;;23.10;99.90;;;;;;5037326;28;20933;-83
2022/05/26 11:03:51;;;;;;;5.10;1.73;;;23.50;99.90;;;;;;5037716;28;20457;-82
2022/05/26 11:06:23;;;;;;;4.50;1.90;;;23.50;99.90;;;;;;5037376;28;20426;-82
2022/05/26 11:09:07;;;;;;;4.87;2.10;;;23.80;99.90;;;;;;5037670;28;20430;-81
2022/05/26 11:11:54;;;;;;;3.47;1.87;;;23.70;99.90;;;;;;5037332;28;20429;-82
2022/05/26 11:17:39;;;;;;;6.73;2.30;;;23.40;99.90;;;;;;5055154;28;20464;-82
2022/05/26 11:20:05;;;;;;;3.50;1.90;;;23.40;99.90;;;;;;5036911;28;20544;-82
2022/05/26 11:22:31;;;;;;;3.60;1.90;;;23.70;99.90;;;;;;5037301;28;20882;-82
2022/05/26 11:24:59;;;;;;;6.40;2.70;;;23.50;99.90;;;;;;5036901;28;20186;-83
2022/05/26 11:27:34;;;;;;;3.30;1.87;;;23.00;99.90;;;;;;5036526;28;20333;-83
2022/05/26 11:36:07;;;;;;;3.50;1.83;;;23.00;99.90;;;;;;5037091;28;20454;-82
2022/05/26 11:38:28;;;;;;;2.90;1.77;;;23.40;99.90;;;;;;5054967;28;21100;-83
2022/05/26 11:41:10;;;;;;;5.60;1.93;;;23.30;99.90;;;;;;5036721;28;20418;-83
2022/05/26 11:44:06;;;;;;;4.23;2.00;;;23.30;99.10;;;;;;5036555;28;20183;-82
2022/05/26 11:46:49;;;;;;;2.43;1.40;;;23.00;99.90;;;;;;5036424;28;20433;-82
2022/05/26 11:49:43;;;;;;;6.60;2.00;;;23.10;99.90;;;;;;5036449;28;20909;-82
2022/05/26 11:52:46;;;;;;;6.10;2.27;;;23.30;99.90;;;;;;5036573;28;21058;-82
2022/05/26 11:55:26;;;;;;;4.20;1.90;;;23.50;98.70;;;;;;5036249;28;20422;-82
2022/05/26 11:57:54;;;;;;;4.47;1.90;;;23.30;99.90;;;;;;5039922;28;20441;-83
2022/05/26 12:00:35;;;;;;;3.50;1.90;;;22.90;99.90;;;;;;5041550;28;20453;-82
2022/05/26 12:03:22;;;;;;;5.37;2.00;;;22.60;99.90;;;;;;5042245;28;20430;-83
2022/05/26 12:06:06;;;;;;;4.40;2.67;;;22.40;99.90;;;;;;5039966;28;20433;-82
2022/05/26 12:08:38;;;;;;;4.10;1.83;;;22.30;99.90;;;;;;5039461;28;20445;-83
2022/05/26 12:11:09;;;;;;;3.60;2.03;;;22.50;99.90;;;;;;5039150;28;20788;-85
2022/05/26 12:13:40;;;;;;;3.80;2.00;;;22.70;99.90;;;;;;5038786;28;20469;-82
2022/05/26 12:16:27;;;;;;;3.00;2.00;;;23.00;99.90;;;;;;5037466;28;20465;-83
2022/05/26 12:18:55;;;;;;;4.30;2.03;;;22.90;99.90;;;;;;5038647;28;20422;-82
2022/05/26 12:21:27;;;;;;;3.93;2.00;;;23.00;99.90;;;;;;5038086;28;20933;-81
2022/05/26 12:23:54;;;;;;;2.80;1.80;;;23.00;99.90;;;;;;5038308;28;20425;-82
2022/05/26 12:26:50;;;;;;;5.20;2.23;;;22.90;98.30;;;;;;5037886;28;20509;-83
2022/05/26 12:29:50;;;;;;;4.60;2.63;;;23.20;99.90;;;;;;5029053;28;20434;-84
2022/05/26 12:32:27;;;;;;;5.70;2.27;;;23.60;99.90;;;;;;5038201;28;20474;-84
2022/05/26 12:35:17;;;;;;;4.10;2.03;;;23.90;96.30;;;;;;5038471;28;20433;-85
2022/05/26 12:37:50;;;;;;;6.70;2.67;;;23.80;98.90;;;;;;5036897;28;20533;-84
2022/05/26 12:40:34;;;;;;;4.07;2.17;;;23.40;99.90;;;;;;5037884;28;20426;-84
2022/05/26 12:43:42;;;;;;;4.00;2.20;;;23.20;99.80;;;;;;5037777;28;20610;-83
2022/05/26 12:46:29;;;;;;;3.70;2.00;;;23.10;96.40;;;;;;5036892;28;20418;-82
2022/05/26 12:49:04;;;;;;;5.90;2.27;;;23.20;97.40;;;;;;5037322;28;20480;-82
2022/05/26 12:51:35;;;;;;;3.43;1.80;;;23.30;98.60;;;;;;5037025;28;20460;-82
2022/05/26 12:54:04;;;;;;;3.30;2.03;;;23.60;99.40;;;;;;5036770;28;20437;-82
2022/05/26 12:56:45;;;;;;;3.57;1.67;;;24.00;98.90;;;;;;5036487;28;20418;-82
2022/05/26 12:59:15;;;;;;;3.53;1.70;;;24.30;97.00;;;;;;5036493;28;20523;-81
2022/05/26 13:01:41;;;;;;;3.53;1.97;;;24.30;93.40;;;;;;5036224;28;20439;-80
2022/05/26 13:04:12;;;;;;;4.60;1.90;;;24.20;95.40;;;;;;5031849;28;20788;-82
2022/05/26 13:06:41;;;;;;;3.10;1.80;;;24.40;95.10;;;;;;5030676;28;20479;-83
2022/05/26 13:09:24;;;;;;;4.47;2.03;;;24.40;95.60;;;;;;5033966;28;20910;-82
2022/05/26 13:11:52;;;;;;;2.47;1.50;;;24.50;93.70;;;;;;5022787;28;20421;-81
2022/05/26 13:14:38;;;;;;;5.97;2.20;;;24.30;94.50;;;;;;5036867;28;20422;-80
2022/05/26 13:17:13;;;;;;;4.03;1.90;;;24.60;95.40;;;;;;5035911;28;20468;-85
2022/05/26 13:19:49;;;;;;;4.20;2.27;;;24.70;91.90;;;;;;5032042;23;20470;-81
2022/05/26 13:22:22;;;;;;;7.70;3.47;;;24.30;93.50;;;;;;4975736;28;20433;-82
2022/05/26 13:25:00;;;;;;;4.60;2.50;;;24.40;92.70;;;;;;4995313;28;20454;-82
2022/05/26 13:27:42;;;;;;;4.23;2.60;;;24.70;96.80;;;;;;5004417;28;20486;-81
2022/05/26 13:33:11;;;;;;;7.97;2.70;;;24.30;90.60;;;;;;5012946;28;20458;-82
2022/05/26 13:35:49;;;;;;;9.33;2.97;;;24.10;91.10;;;;;;4989630;28;20432;-83
2022/05/26 13:38:30;;;;;;;3.73;3.13;;;24.10;93.00;;;;;;4975242;28;20412;-82
2022/05/26 13:40:57;;;;;;;4.90;2.67;;;24.00;95.10;;;;;;4993008;28;20484;-82
2022/05/26 13:43:24;;;;;;;5.27;2.57;;;24.00;93.10;;;;;;4992869;28;20452;-82
2022/05/26 13:45:51;;;;;;;4.00;2.30;;;24.00;94.50;;;;;;4975236;28;20421;-82
2022/05/26 13:48:37;;;;;;;4.93;2.50;;;24.10;93.80;;;;;;4975426;28;20429;-82
2022/05/26 13:51:19;;;;;;;4.20;2.33;;;24.20;93.80;;;;;;4992802;28;20449;-82
2022/05/26 13:53:48;;;;;;;3.30;2.70;;;24.30;93.30;;;;;;4975348;28;20449;-82
2022/05/26 13:56:28;;;;;;;5.43;2.07;;;24.50;93.50;;;;;;4974917;28;20952;-82